Bellefonte, Pennsylvania
Current Conditions -  °F | °C
As of 8:53 PM on Friday 28 Nov 2014 (Local Time) from KUNV Reporting Station
Clear Clear  
Wind Chill: 23°   Ceiling: Unl
Heat Index: 23°   Visibility: 10mi
Dew Point: 12°   Wind: 3mph
Humidity: 63%   Direction: 260°W
Pressure: 30.22"   Gusts: NA
Location:  40.91°N, 77.78°W
Report Text: KUNV 290153Z 26003KT 10SM SKC M05/M11 A3022
Loading
Personal Weather Stations






























Interactive Weather Map New forecast layout! Learn more

10-Day Weather Forecast

Advertisements
Track Severe Weather on mobile